Time;durP1;ratioP1;P1;durP2;ratioP2;P2;SDS_P1;SDS_P2;PMS_P1;PMS_P2;Temp;Humidity;BMP_temperature;BMP_pressure;BME280_temperature;BME280_humidity;BME280_pressure;Samples;Min_cycle;Max_cycle;Signal;HPM_P1;HPM_P2
2023/07/15 00:00:13;;;;;;;5.07;4.18;;;;;;;;;;6214324;23;20347;-57
2023/07/15 00:02:41;;;;;;;6.75;4.30;;;;;;;;;;6213959;23;20452;-59
2023/07/15 00:05:18;;;;;;;4.82;4.10;;;;;;;;;;6213528;23;20024;-58
2023/07/15 00:07:45;;;;;;;5.18;3.65;;;;;;;;;;6213997;23;20020;-58
2023/07/15 00:10:14;;;;;;;5.38;3.70;;;;;;;;;;6213416;23;20029;-60
2023/07/15 00:12:41;;;;;;;6.20;3.88;;;;;;;;;;6213722;23;20351;-58
2023/07/15 00:15:11;;;;;;;6.07;3.90;;;;;;;;;;6213187;23;20032;-59
2023/07/15 00:17:39;;;;;;;5.03;4.13;;;;;;;;;;6213903;23;20021;-58
2023/07/15 00:20:08;;;;;;;5.15;4.15;;;;;;;;;;6213981;23;20056;-59
2023/07/15 00:22:35;;;;;;;5.50;4.33;;;;;;;;;;6213717;23;20020;-58
2023/07/15 00:25:05;;;;;;;5.45;3.90;;;;;;;;;;6213396;23;20059;-60
2023/07/15 00:27:33;;;;;;;6.13;3.97;;;;;;;;;;6213806;23;20024;-57
2023/07/15 00:30:00;;;;;;;5.55;4.47;;;;;;;;;;6213728;23;20716;-60
2023/07/15 00:32:27;;;;;;;7.70;5.15;;;;;;;;;;6213814;23;20029;-60
2023/07/15 00:34:54;;;;;;;6.38;5.10;;;;;;;;;;6213229;23;20020;-60
2023/07/15 00:37:21;;;;;;;6.57;5.10;;;;;;;;;;6213895;23;20028;-55
2023/07/15 00:39:48;;;;;;;6.25;4.65;;;;;;;;;;6213696;23;20032;-58
2023/07/15 00:42:22;;;;;;;6.10;5.50;;;;;;;;;;6213994;23;20025;-59
2023/07/15 00:44:48;;;;;;;6.75;6.05;;;;;;;;;;6209696;23;20399;-60
2023/07/15 00:47:28;;;;;;;8.73;7.07;;;;;;;;;;6213702;23;20021;-57
2023/07/15 00:49:56;;;;;;;7.32;6.20;;;;;;;;;;6213785;23;20021;-60
2023/07/15 00:52:22;;;;;;;7.63;6.82;;;;;;;;;;6213756;23;20448;-55
2023/07/15 00:54:52;;;;;;;8.35;6.55;;;;;;;;;;6213215;23;20024;-56
2023/07/15 00:57:20;;;;;;;7.90;7.00;;;;;;;;;;6213605;23;20020;-60
2023/07/15 00:59:48;;;;;;;9.90;6.93;;;;;;;;;;6215116;23;20039;-60
2023/07/15 01:02:16;;;;;;;7.57;6.78;;;;;;;;;;6215285;23;20040;-60
2023/07/15 01:04:45;;;;;;;7.43;6.63;;;;;;;;;;6215398;23;20025;-58
2023/07/15 01:07:12;;;;;;;8.87;6.87;;;;;;;;;;6215322;23;20051;-58
2023/07/15 01:09:40;;;;;;;6.65;5.95;;;;;;;;;;6215779;23;20308;-58
2023/07/15 01:12:08;;;;;;;7.30;6.50;;;;;;;;;;6215514;23;20028;-56
2023/07/15 01:14:34;;;;;;;7.88;6.45;;;;;;;;;;6215185;23;20467;-59
2023/07/15 01:17:01;;;;;;;7.50;6.43;;;;;;;;;;6215276;23;20039;-59
2023/07/15 01:19:28;;;;;;;7.10;6.40;;;;;;;;;;6215283;23;20087;-60
2023/07/15 01:21:56;;;;;;;6.97;6.20;;;;;;;;;;6215540;23;20071;-57
2023/07/15 01:24:25;;;;;;;7.40;6.60;;;;;;;;;;6214945;23;20021;-60
2023/07/15 01:27:01;;;;;;;6.60;5.85;;;;;;;;;;6215310;23;20100;-60
2023/07/15 01:29:28;;;;;;;6.50;5.63;;;;;;;;;;6215358;23;20020;-60
2023/07/15 01:31:55;;;;;;;6.57;5.88;;;;;;;;;;6215225;23;20024;-59
2023/07/15 01:34:22;;;;;;;6.38;5.68;;;;;;;;;;6214892;23;20020;-60
2023/07/15 01:36:49;;;;;;;7.75;5.32;;;;;;;;;;6215437;23;20387;-59
2023/07/15 01:39:16;;;;;;;5.93;5.15;;;;;;;;;;6215362;23;20028;-59
2023/07/15 01:41:45;;;;;;;8.20;7.07;;;;;;;;;;6215265;23;20103;-60
2023/07/15 01:44:14;;;;;;;6.07;5.30;;;;;;;;;;6215066;23;20025;-60
2023/07/15 01:46:41;;;;;;;7.00;6.30;;;;;;;;;;6215300;23;20028;-60
2023/07/15 01:49:08;;;;;;;6.88;5.47;;;;;;;;;;6215308;23;20028;-60
2023/07/15 01:51:35;;;;;;;7.13;5.85;;;;;;;;;;6215314;23;20051;-58
2023/07/15 01:54:02;;;;;;;8.20;7.15;;;;;;;;;;6215148;23;20444;-58
2023/07/15 01:56:30;;;;;;;9.23;6.43;;;;;;;;;;6215234;23;20021;-55
2023/07/15 01:58:58;;;;;;;7.53;6.72;;;;;;;;;;6214624;23;20028;-58
2023/07/15 02:01:26;;;;;;;6.95;5.95;;;;;;;;;;6215257;23;20082;-58
2023/07/15 02:03:53;;;;;;;5.95;5.30;;;;;;;;;;6214815;23;20028;-57
2023/07/15 02:06:20;;;;;;;6.68;4.93;;;;;;;;;;6214726;23;20020;-60
2023/07/15 02:08:46;;;;;;;4.93;4.32;;;;;;;;;;6214946;23;20027;-58
2023/07/15 02:11:13;;;;;;;6.15;4.68;;;;;;;;;;6214571;23;20112;-58
2023/07/15 02:13:40;;;;;;;5.85;5.15;;;;;;;;;;6214879;23;20021;-59
2023/07/15 02:16:08;;;;;;;7.45;6.00;;;;;;;;;;6214935;23;20325;-55
2023/07/15 02:18:35;;;;;;;7.05;6.32;;;;;;;;;;6214888;23;20075;-58
2023/07/15 02:21:02;;;;;;;7.72;6.60;;;;;;;;;;6214990;23;20024;-59
2023/07/15 02:23:30;;;;;;;8.18;6.68;;;;;;;;;;6214664;23;20038;-56
2023/07/15 02:25:57;;;;;;;6.13;5.53;;;;;;;;;;6215014;23;20021;-59
2023/07/15 02:28:26;;;;;;;6.05;5.45;;;;;;;;;;6214890;23;20482;-59
2023/07/15 02:30:54;;;;;;;6.28;5.35;;;;;;;;;;6214611;23;20028;-59
2023/07/15 02:33:24;;;;;;;7.70;5.97;;;;;;;;;;6214449;23;20108;-58
2023/07/15 02:35:51;;;;;;;7.38;5.90;;;;;;;;;;6214916;23;20113;-56
2023/07/15 02:38:18;;;;;;;6.32;4.85;;;;;;;;;;6215274;23;20537;-59
2023/07/15 02:40:47;;;;;;;6.80;5.60;;;;;;;;;;6214756;23;20087;-59
2023/07/15 02:43:14;;;;;;;7.18;6.07;;;;;;;;;;6214381;23;20075;-59
2023/07/15 02:45:41;;;;;;;7.25;5.78;;;;;;;;;;6214495;23;20067;-59
2023/07/15 02:48:10;;;;;;;6.55;5.90;;;;;;;;;;6215347;23;20020;-58
2023/07/15 02:50:39;;;;;;;6.40;5.35;;;;;;;;;;6214616;23;20029;-57
2023/07/15 02:53:05;;;;;;;7.50;5.35;;;;;;;;;;6214224;23;20021;-59
2023/07/15 02:55:32;;;;;;;6.40;5.30;;;;;;;;;;6214492;23;20075;-57
2023/07/15 02:57:59;;;;;;;9.00;6.13;;;;;;;;;;6214732;23;20078;-57
2023/07/15 03:00:26;;;;;;;6.18;5.57;;;;;;;;;;6213976;23;20024;-57
2023/07/15 03:02:53;;;;;;;6.82;6.13;;;;;;;;;;6214127;23;20367;-57
2023/07/15 03:05:20;;;;;;;6.22;5.63;;;;;;;;;;6214358;23;20075;-58
2023/07/15 03:07:49;;;;;;;8.68;6.28;;;;;;;;;;6214653;23;20483;-58
2023/07/15 03:10:18;;;;;;;8.13;5.85;;;;;;;;;;6214289;23;20044;-57
2023/07/15 03:12:45;;;;;;;6.32;5.72;;;;;;;;;;6214412;23;20024;-59
2023/07/15 03:15:12;;;;;;;6.85;6.18;;;;;;;;;;6214360;23;20032;-59
2023/07/15 03:17:39;;;;;;;6.72;6.03;;;;;;;;;;6214346;23;20024;-58
2023/07/15 03:20:14;;;;;;;6.25;5.43;;;;;;;;;;6214371;23;20020;-56
2023/07/15 03:22:41;;;;;;;7.78;5.70;;;;;;;;;;6214218;23;20455;-57
2023/07/15 03:25:10;;;;;;;7.32;6.13;;;;;;;;;;6213882;23;20475;-59
2023/07/15 03:27:37;;;;;;;7.65;6.57;;;;;;;;;;6214349;23;20452;-58
2023/07/15 03:30:07;;;;;;;7.47;6.78;;;;;;;;;;6214226;23;20039;-57
2023/07/15 03:32:34;;;;;;;7.03;6.10;;;;;;;;;;6213813;23;20047;-58
2023/07/15 03:35:02;;;;;;;6.05;4.97;;;;;;;;;;6214158;23;20024;-59
2023/07/15 03:37:29;;;;;;;6.10;5.03;;;;;;;;;;6214354;23;20044;-59
2023/07/15 03:39:56;;;;;;;5.70;4.90;;;;;;;;;;6214033;23;20021;-53
2023/07/15 03:42:26;;;;;;;5.95;3.95;;;;;;;;;;6213967;23;20331;-56
2023/07/15 03:44:53;;;;;;;6.60;4.47;;;;;;;;;;6213781;23;20459;-57
2023/07/15 03:47:19;;;;;;;6.13;3.95;;;;;;;;;;6214327;23;20300;-55
2023/07/15 03:49:46;;;;;;;5.75;4.30;;;;;;;;;;6213877;23;20025;-58
2023/07/15 03:52:13;;;;;;;6.25;4.13;;;;;;;;;;6213895;23;20399;-58
2023/07/15 03:54:40;;;;;;;5.13;4.07;;;;;;;;;;6214196;23;20474;-58
2023/07/15 03:57:07;;;;;;;4.72;3.75;;;;;;;;;;6213913;23;20024;-58
2023/07/15 03:59:35;;;;;;;5.63;4.40;;;;;;;;;;6214353;23;20020;-55
2023/07/15 04:02:02;;;;;;;4.78;3.88;;;;;;;;;;6213831;23;20111;-57
2023/07/15 04:04:29;;;;;;;5.57;3.88;;;;;;;;;;6213409;23;20083;-56
2023/07/15 04:06:56;;;;;;;5.70;4.03;;;;;;;;;;6213797;23;20024;-57
2023/07/15 04:09:23;;;;;;;5.13;3.53;;;;;;;;;;6214040;23;20092;-57
2023/07/15 04:11:51;;;;;;;4.68;3.88;;;;;;;;;;6213495;23;20024;-58
2023/07/15 04:14:17;;;;;;;4.80;3.65;;;;;;;;;;6213589;23;20099;-59
2023/07/15 04:16:46;;;;;;;5.07;3.50;;;;;;;;;;6214319;23;20020;-59
2023/07/15 04:19:13;;;;;;;5.50;3.53;;;;;;;;;;6214144;23;20025;-59
2023/07/15 04:21:41;;;;;;;4.78;3.67;;;;;;;;;;6213835;23;20025;-58
2023/07/15 04:24:08;;;;;;;4.45;3.10;;;;;;;;;;6213121;23;20060;-59
2023/07/15 04:26:34;;;;;;;4.15;3.40;;;;;;;;;;6213891;23;20028;-59
2023/07/15 04:29:01;;;;;;;4.93;3.42;;;;;;;;;;6213901;23;20024;-60
2023/07/15 04:31:28;;;;;;;4.57;3.42;;;;;;;;;;6213732;23;20025;-60
2023/07/15 04:33:57;;;;;;;4.75;3.63;;;;;;;;;;6212848;23;20079;-59
2023/07/15 04:36:23;;;;;;;4.40;3.40;;;;;;;;;;6213696;23;20032;-60
2023/07/15 04:38:50;;;;;;;4.72;3.35;;;;;;;;;;6214062;23;20028;-60
2023/07/15 04:41:17;;;;;;;4.25;3.40;;;;;;;;;;6213347;23;20025;-60
2023/07/15 04:43:44;;;;;;;5.82;3.72;;;;;;;;;;6213400;23;20070;-60
2023/07/15 04:46:12;;;;;;;4.45;3.55;;;;;;;;;;6213657;23;20132;-59
2023/07/15 04:48:39;;;;;;;5.18;3.60;;;;;;;;;;6213759;23;20020;-59
2023/07/15 04:51:08;;;;;;;7.00;3.85;;;;;;;;;;6213893;23;20395;-59
2023/07/15 04:53:35;;;;;;;4.50;3.45;;;;;;;;;;6213926;23;20020;-60
2023/07/15 04:56:02;;;;;;;5.07;4.10;;;;;;;;;;6213207;23;20024;-60
2023/07/15 04:58:29;;;;;;;4.78;3.30;;;;;;;;;;6213661;23;20020;-59
2023/07/15 05:00:57;;;;;;;4.82;3.88;;;;;;;;;;6213611;23;20021;-59
2023/07/15 05:03:24;;;;;;;5.25;3.50;;;;;;;;;;6213742;23;20047;-60
2023/07/15 05:05:51;;;;;;;5.50;3.80;;;;;;;;;;6213641;23;20095;-60
2023/07/15 05:08:20;;;;;;;5.70;3.58;;;;;;;;;;6213509;23;20039;-59
2023/07/15 05:10:49;;;;;;;4.60;3.17;;;;;;;;;;6213658;23;20103;-60
2023/07/15 05:13:16;;;;;;;5.30;3.67;;;;;;;;;;6213014;23;20021;-60
2023/07/15 05:15:44;;;;;;;4.80;3.55;;;;;;;;;;6213303;23;20032;-60
2023/07/15 05:18:11;;;;;;;5.70;3.70;;;;;;;;;;6213882;23;20494;-58
2023/07/15 05:20:38;;;;;;;4.30;2.80;;;;;;;;;;6213810;23;20253;-59
2023/07/15 05:23:06;;;;;;;5.85;3.55;;;;;;;;;;6213667;23;20028;-58
2023/07/15 05:25:34;;;;;;;4.32;3.20;;;;;;;;;;6213975;23;20029;-59
2023/07/15 05:28:01;;;;;;;4.93;3.42;;;;;;;;;;6213594;23;20021;-58
2023/07/15 05:30:28;;;;;;;4.40;3.38;;;;;;;;;;6213361;23;20021;-58
2023/07/15 05:32:54;;;;;;;4.63;3.10;;;;;;;;;;6213316;23;20052;-54
2023/07/15 05:35:21;;;;;;;5.22;3.70;;;;;;;;;;6213678;23;20028;-59
2023/07/15 05:37:48;;;;;;;4.47;3.70;;;;;;;;;;6213639;23;20448;-60
2023/07/15 05:40:15;;;;;;;6.30;3.80;;;;;;;;;;6213369;23;20575;-58
2023/07/15 05:42:44;;;;;;;5.47;3.28;;;;;;;;;;6213110;23;20091;-58
2023/07/15 05:45:11;;;;;;;4.60;3.20;;;;;;;;;;6213863;23;20031;-58
2023/07/15 05:47:38;;;;;;;5.05;3.55;;;;;;;;;;6214949;23;20071;-59
2023/07/15 05:50:06;;;;;;;4.43;3.50;;;;;;;;;;6215098;23;20025;-56
2023/07/15 05:52:33;;;;;;;6.25;3.53;;;;;;;;;;6214720;23;20092;-57
2023/07/15 05:55:00;;;;;;;4.82;3.20;;;;;;;;;;6214589;23;20025;-56
2023/07/15 05:57:27;;;;;;;4.22;3.22;;;;;;;;;;6215294;23;20507;-57
2023/07/15 05:59:56;;;;;;;3.78;2.95;;;;;;;;;;6215076;23;20079;-55
2023/07/15 06:02:23;;;;;;;4.57;3.63;;;;;;;;;;6215013;23;20021;-58
2023/07/15 06:04:49;;;;;;;4.85;3.20;;;;;;;;;;6214344;23;20028;-55
2023/07/15 06:07:16;;;;;;;4.55;3.20;;;;;;;;;;6215202;23;20395;-57
2023/07/15 06:09:43;;;;;;;5.53;3.50;;;;;;;;;;6215259;23;20027;-55
2023/07/15 06:12:10;;;;;;;5.00;3.55;;;;;;;;;;6214735;23;20031;-57
2023/07/15 06:14:37;;;;;;;4.20;2.92;;;;;;;;;;6214490;23;20082;-58
2023/07/15 06:17:05;;;;;;;5.28;3.25;;;;;;;;;;6215062;23;20020;-58
2023/07/15 06:19:32;;;;;;;3.75;2.95;;;;;;;;;;6214883;23;20020;-59
2023/07/15 06:21:59;;;;;;;5.82;3.35;;;;;;;;;;6214510;23;20021;-58
2023/07/15 06:24:26;;;;;;;4.50;3.00;;;;;;;;;;6214428;23;20032;-58
2023/07/15 06:26:53;;;;;;;4.32;3.08;;;;;;;;;;6214849;23;20351;-60
2023/07/15 06:29:20;;;;;;;4.28;3.05;;;;;;;;;;6214811;23;20051;-59
2023/07/15 06:31:46;;;;;;;4.57;3.00;;;;;;;;;;6214401;23;20048;-58
2023/07/15 06:34:15;;;;;;;4.63;2.92;;;;;;;;;;6214150;23;20017;-59
2023/07/15 06:36:42;;;;;;;4.63;2.95;;;;;;;;;;6214755;23;20024;-59
2023/07/15 06:39:09;;;;;;;4.40;3.15;;;;;;;;;;6214631;23;20359;-59
2023/07/15 06:41:35;;;;;;;4.93;3.47;;;;;;;;;;6214999;23;20025;-59
2023/07/15 06:44:02;;;;;;;4.97;3.25;;;;;;;;;;6213973;23;20048;-58
2023/07/15 06:46:29;;;;;;;5.05;3.30;;;;;;;;;;6214601;23;20032;-59
2023/07/15 06:48:56;;;;;;;3.92;2.90;;;;;;;;;;6214718;23;20021;-59
2023/07/15 06:51:24;;;;;;;4.72;3.05;;;;;;;;;;6214641;23;20531;-59
2023/07/15 06:53:51;;;;;;;4.25;3.10;;;;;;;;;;6213795;23;20025;-59
2023/07/15 06:56:18;;;;;;;4.72;3.00;;;;;;;;;;6214247;23;20017;-60
2023/07/15 06:58:45;;;;;;;4.65;3.08;;;;;;;;;;6214761;23;20024;-60
2023/07/15 07:01:12;;;;;;;3.90;2.90;;;;;;;;;;6214348;23;20635;-59
2023/07/15 07:03:38;;;;;;;5.88;3.17;;;;;;;;;;6214233;23;20024;-59
2023/07/15 07:06:05;;;;;;;4.30;3.13;;;;;;;;;;6213977;23;20024;-59
2023/07/15 07:08:33;;;;;;;6.15;3.30;;;;;;;;;;6215301;23;20071;-61
2023/07/15 07:11:00;;;;;;;4.80;3.15;;;;;;;;;;6214025;23;20028;-60
2023/07/15 07:13:27;;;;;;;5.05;3.28;;;;;;;;;;6213756;23;20029;-60
2023/07/15 07:15:58;;;;;;;4.72;3.13;;;;;;;;;;6214765;23;20020;-59
2023/07/15 07:18:24;;;;;;;3.95;2.88;;;;;;;;;;6215137;23;20486;-57
2023/07/15 07:20:56;;;;;;;4.38;3.15;;;;;;;;;;6213270;23;20411;-60
2023/07/15 07:23:23;;;;;;;4.30;2.83;;;;;;;;;;6213634;23;20078;-59
2023/07/15 07:25:51;;;;;;;4.90;2.97;;;;;;;;;;6214037;23;20044;-60
2023/07/15 07:28:21;;;;;;;5.82;2.90;;;;;;;;;;6214213;23;20029;-60
2023/07/15 07:30:48;;;;;;;5.38;3.47;;;;;;;;;;6214220;23;20025;-60
2023/07/15 07:33:15;;;;;;;4.53;3.10;;;;;;;;;;6213775;23;20474;-60
2023/07/15 07:35:46;;;;;;;4.85;3.10;;;;;;;;;;6212478;23;20098;-61
2023/07/15 07:38:13;;;;;;;3.88;2.67;;;;;;;;;;6213717;23;20024;-59
2023/07/15 07:40:40;;;;;;;3.92;3.03;;;;;;;;;;6214517;23;20027;-59
2023/07/15 07:43:08;;;;;;;5.72;3.17;;;;;;;;;;6213564;23;20028;-59
2023/07/15 07:45:35;;;;;;;4.63;2.65;;;;;;;;;;6214598;23;20518;-61
2023/07/15 07:48:02;;;;;;;4.40;2.47;;;;;;;;;;6214256;23;20159;-59
2023/07/15 07:50:29;;;;;;;4.45;2.70;;;;;;;;;;6214034;23;20099;-58
2023/07/15 07:52:55;;;;;;;4.88;3.38;;;;;;;;;;6213382;23;20021;-57
2023/07/15 07:55:22;;;;;;;4.15;2.80;;;;;;;;;;6213150;23;20020;-59
2023/07/15 07:57:49;;;;;;;4.05;3.03;;;;;;;;;;6213828;23;20025;-58
2023/07/15 08:00:18;;;;;;;5.20;3.00;;;;;;;;;;6212010;23;20020;-57
2023/07/15 08:02:44;;;;;;;4.75;3.20;;;;;;;;;;6211040;23;20029;-56
2023/07/15 08:05:11;;;;;;;4.60;3.08;;;;;;;;;;6211537;23;20075;-58
2023/07/15 08:07:38;;;;;;;6.95;3.08;;;;;;;;;;6211691;23;20337;-58
2023/07/15 08:10:06;;;;;;;4.43;2.45;;;;;;;;;;6213019;23;20083;-58
2023/07/15 08:12:33;;;;;;;4.78;2.78;;;;;;;;;;6213471;23;20021;-60
2023/07/15 08:15:00;;;;;;;3.72;2.30;;;;;;;;;;6212527;23;20031;-57
2023/07/15 08:17:28;;;;;;;4.50;2.85;;;;;;;;;;6213757;23;20020;-59
2023/07/15 08:19:55;;;;;;;4.15;2.40;;;;;;;;;;6213730;23;20029;-59
2023/07/15 08:22:22;;;;;;;3.47;2.38;;;;;;;;;;6213873;23;20025;-57
2023/07/15 08:24:49;;;;;;;3.92;2.63;;;;;;;;;;6212279;23;20032;-57
2023/07/15 08:27:16;;;;;;;5.05;2.53;;;;;;;;;;6213289;23;20021;-55
2023/07/15 08:29:43;;;;;;;4.28;2.10;;;;;;;;;;6212708;23;20025;-56
2023/07/15 08:32:09;;;;;;;4.15;2.60;;;;;;;;;;6213340;23;20027;-59
2023/07/15 08:34:38;;;;;;;4.80;2.50;;;;;;;;;;6213447;23;20452;-60
2023/07/15 08:37:05;;;;;;;3.90;2.60;;;;;;;;;;6213582;23;20021;-58
2023/07/15 08:39:32;;;;;;;3.30;2.40;;;;;;;;;;6213647;23;20460;-59
2023/07/15 08:42:02;;;;;;;5.45;2.83;;;;;;;;;;6213082;23;20025;-57
2023/07/15 08:44:29;;;;;;;3.75;2.55;;;;;;;;;;6213721;23;20355;-57
2023/07/15 08:46:57;;;;;;;4.35;2.60;;;;;;;;;;6213276;23;20025;-58
2023/07/15 08:49:24;;;;;;;4.32;2.58;;;;;;;;;;6213725;23;20020;-59
2023/07/15 08:51:52;;;;;;;4.28;2.28;;;;;;;;;;6213527;23;20486;-55
2023/07/15 08:54:19;;;;;;;4.65;2.30;;;;;;;;;;6213034;23;20020;-58
2023/07/15 08:56:46;;;;;;;4.10;2.35;;;;;;;;;;6213379;23;20039;-58
2023/07/15 08:59:18;;;;;;;5.55;2.50;;;;;;;;;;6213851;23;20456;-59
2023/07/15 09:01:45;;;;;;;3.75;2.25;;;;;;;;;;6213642;23;20112;-58
2023/07/15 09:04:11;;;;;;;5.30;2.35;;;;;;;;;;6213284;23;20029;-57
2023/07/15 09:06:38;;;;;;;3.72;2.17;;;;;;;;;;6213251;23;20024;-58
2023/07/15 09:09:07;;;;;;;4.10;2.38;;;;;;;;;;6213444;23;20025;-60
2023/07/15 09:11:41;;;;;;;4.07;2.17;;;;;;;;;;6213314;23;20337;-58
2023/07/15 09:14:14;;;;;;;3.95;2.40;;;;;;;;;;6213306;23;20083;-59
2023/07/15 09:16:42;;;;;;;3.75;2.03;;;;;;;;;;6213215;23;20507;-59
2023/07/15 09:19:09;;;;;;;3.90;2.60;;;;;;;;;;6213454;23;20031;-60
2023/07/15 09:21:36;;;;;;;8.63;2.90;;;;;;;;;;6214530;23;20043;-59
2023/07/15 09:24:03;;;;;;;4.88;2.50;;;;;;;;;;6214213;23;20032;-59
2023/07/15 09:26:31;;;;;;;5.95;2.38;;;;;;;;;;6213709;23;20059;-59
2023/07/15 09:28:58;;;;;;;9.15;2.65;;;;;;;;;;6213951;23;20024;-62
2023/07/15 09:31:25;;;;;;;6.47;2.15;;;;;;;;;;6213623;23;20021;-66
2023/07/15 09:33:52;;;;;;;5.22;2.20;;;;;;;;;;6213393;23;20024;-56
2023/07/15 09:36:30;;;;;;;5.65;2.35;;;;;;;;;;6213707;23;20040;-62
2023/07/15 09:39:02;;;;;;;4.10;2.30;;;;;;;;;;6214233;23;20021;-58
2023/07/15 09:41:30;;;;;;;4.07;2.63;;;;;;;;;;6215099;23;20067;-64
2023/07/15 09:43:57;;;;;;;5.88;2.50;;;;;;;;;;6214703;23;20024;-60
2023/07/15 09:46:27;;;;;;;4.45;2.13;;;;;;;;;;6213541;23;20483;-58
2023/07/15 09:48:56;;;;;;;7.15;2.85;;;;;;;;;;6213336;23;20091;-59
2023/07/15 09:51:25;;;;;;;5.28;2.75;;;;;;;;;;6213710;23;20336;-54
2023/07/15 09:53:54;;;;;;;3.75;2.20;;;;;;;;;;6214121;23;20074;-59
2023/07/15 09:56:24;;;;;;;5.45;2.15;;;;;;;;;;6215048;23;20024;-61
2023/07/15 09:58:55;;;;;;;7.30;3.17;;;;;;;;;;6215248;23;20083;-64
2023/07/15 10:01:31;;;;;;;6.18;3.13;;;;;;;;;;6214821;23;20024;-58
2023/07/15 10:04:08;;;;;;;6.50;3.15;;;;;;;;;;6213637;23;20326;-62
2023/07/15 10:06:35;;;;;;;4.85;2.30;;;;;;;;;;6214581;23;20028;-60
2023/07/15 10:09:03;;;;;;;4.15;2.38;;;;;;;;;;6214369;23;20130;-61
2023/07/15 10:11:31;;;;;;;4.35;2.88;;;;;;;;;;6214141;23;20027;-62
2023/07/15 10:14:00;;;;;;;3.75;2.42;;;;;;;;;;6214910;23;20104;-61
2023/07/15 10:16:27;;;;;;;3.77;2.10;;;;;;;;;;6215020;23;20020;-62
2023/07/15 10:18:55;;;;;;;4.60;2.20;;;;;;;;;;6214540;23;20535;-63
2023/07/15 10:21:22;;;;;;;4.78;2.28;;;;;;;;;;6214239;23;20056;-62
2023/07/15 10:23:49;;;;;;;5.53;2.45;;;;;;;;;;6214177;23;20067;-61
2023/07/15 10:26:21;;;;;;;5.30;2.50;;;;;;;;;;6214546;23;20024;-58
2023/07/15 10:28:52;;;;;;;5.10;2.78;;;;;;;;;;6215246;23;20029;-59
2023/07/15 10:31:25;;;;;;;7.10;2.50;;;;;;;;;;6214345;23;20055;-59
2023/07/15 10:33:55;;;;;;;3.33;2.35;;;;;;;;;;6214482;23;20021;-59
2023/07/15 10:36:38;;;;;;;5.45;2.22;;;;;;;;;;6214313;23;20028;-58
2023/07/15 10:39:17;;;;;;;3.85;2.60;;;;;;;;;;6214124;23;20472;-60
2023/07/15 10:41:45;;;;;;;4.28;2.60;;;;;;;;;;6214517;23;20486;-60
2023/07/15 10:44:19;;;;;;;6.20;2.60;;;;;;;;;;6214207;23;20083;-60
2023/07/15 10:46:51;;;;;;;4.82;2.63;;;;;;;;;;6214941;23;20070;-60
2023/07/15 10:49:18;;;;;;;4.47;2.58;;;;;;;;;;6214881;23;20448;-60
2023/07/15 10:51:45;;;;;;;3.40;2.50;;;;;;;;;;6214387;23;20024;-58
2023/07/15 10:54:12;;;;;;;4.40;2.45;;;;;;;;;;6214110;23;20071;-58
2023/07/15 10:56:39;;;;;;;3.35;2.38;;;;;;;;;;6214674;23;20124;-57
2023/07/15 10:59:06;;;;;;;3.80;2.60;;;;;;;;;;6215035;23;20035;-58
2023/07/15 11:01:33;;;;;;;3.08;2.22;;;;;;;;;;6214529;23;20480;-58
2023/07/15 11:04:06;;;;;;;4.10;2.33;;;;;;;;;;6214292;23;20024;-60
2023/07/15 11:06:33;;;;;;;4.13;2.35;;;;;;;;;;6214527;23;20406;-59
2023/07/15 11:09:13;;;;;;;3.72;2.30;;;;;;;;;;6214604;23;20027;-56
2023/07/15 11:11:40;;;;;;;3.63;2.30;;;;;;;;;;6214978;23;20452;-59
2023/07/15 11:14:19;;;;;;;4.38;2.80;;;;;;;;;;6214280;23;20028;-61
2023/07/15 11:16:45;;;;;;;3.25;2.20;;;;;;;;;;6215561;23;20031;-58
2023/07/15 11:19:15;;;;;;;3.40;2.15;;;;;;;;;;6214818;23;20460;-60
2023/07/15 11:21:42;;;;;;;2.92;2.15;;;;;;;;;;6214257;23;20092;-58
2023/07/15 11:24:11;;;;;;;4.15;2.50;;;;;;;;;;6213851;23;20029;-60
2023/07/15 11:26:38;;;;;;;4.68;2.15;;;;;;;;;;6214161;23;20024;-60
2023/07/15 11:29:14;;;;;;;4.75;2.47;;;;;;;;;;6214460;23;20020;-58
2023/07/15 11:31:42;;;;;;;3.80;2.63;;;;;;;;;;6214593;23;20031;-61
2023/07/15 11:34:10;;;;;;;50.47;36.80;;;;;;;;;;6213851;23;20091;-60
2023/07/15 11:36:39;;;;;;;5.13;3.63;;;;;;;;;;6214291;23;20021;-60
2023/07/15 11:39:06;;;;;;;5.63;3.30;;;;;;;;;;6214424;23;20403;-60
2023/07/15 11:41:33;;;;;;;4.38;2.63;;;;;;;;;;6214366;23;20100;-61
2023/07/15 11:44:00;;;;;;;25.10;17.35;;;;;;;;;;6214218;23;20016;-59
2023/07/15 11:46:27;;;;;;;4.72;3.60;;;;;;;;;;6214205;23;20016;-61
2023/07/15 11:48:58;;;;;;;4.40;2.97;;;;;;;;;;6214205;23;20033;-61
2023/07/15 11:51:25;;;;;;;4.28;2.83;;;;;;;;;;6214413;23;20020;-60
2023/07/15 11:53:54;;;;;;;4.18;2.30;;;;;;;;;;6214032;23;20071;-60
2023/07/15 11:56:38;;;;;;;3.95;2.50;;;;;;;;;;6214172;23;20021;-60
2023/07/15 11:59:07;;;;;;;3.60;2.35;;;;;;;;;;6214275;23;20071;-60
2023/07/15 12:01:34;;;;;;;3.58;2.10;;;;;;;;;;6214075;23;20028;-60
2023/07/15 12:04:00;;;;;;;3.45;2.30;;;;;;;;;;6213977;23;20021;-61
2023/07/15 12:06:28;;;;;;;4.20;2.40;;;;;;;;;;6213884;23;20522;-60
2023/07/15 12:09:08;;;;;;;3.40;2.30;;;;;;;;;;6214447;23;20071;-60
2023/07/15 12:11:35;;;;;;;3.83;2.65;;;;;;;;;;6214488;23;20021;-60
2023/07/15 12:14:04;;;;;;;4.60;2.40;;;;;;;;;;6214059;23;20024;-60
2023/07/15 12:16:32;;;;;;;3.88;2.30;;;;;;;;;;6213805;23;20024;-60
2023/07/15 12:19:01;;;;;;;3.90;2.53;;;;;;;;;;6214343;23;20044;-60
2023/07/15 12:21:27;;;;;;;4.40;2.28;;;;;;;;;;6213959;23;20024;-59
2023/07/15 12:23:56;;;;;;;3.70;2.42;;;;;;;;;;6213933;23;20024;-60
2023/07/15 12:26:24;;;;;;;3.20;1.98;;;;;;;;;;6214449;23;20098;-61
2023/07/15 12:28:51;;;;;;;3.35;2.20;;;;;;;;;;6213825;23;20095;-60
2023/07/15 12:31:18;;;;;;;3.88;2.53;;;;;;;;;;6213961;23;20025;-60
2023/07/15 12:33:45;;;;;;;3.50;2.20;;;;;;;;;;6213723;23;20091;-60
2023/07/15 12:36:13;;;;;;;3.80;2.47;;;;;;;;;;6213783;23;20098;-59
2023/07/15 12:38:40;;;;;;;3.13;2.22;;;;;;;;;;6213821;23;20447;-60
2023/07/15 12:41:08;;;;;;;3.22;2.13;;;;;;;;;;6213884;23;20021;-60
2023/07/15 12:43:38;;;;;;;3.38;2.38;;;;;;;;;;6213854;23;20020;-61
2023/07/15 12:46:05;;;;;;;4.05;2.40;;;;;;;;;;6213538;23;20033;-60
2023/07/15 12:48:32;;;;;;;3.05;2.17;;;;;;;;;;6214082;23;20530;-60
2023/07/15 12:50:59;;;;;;;3.65;2.50;;;;;;;;;;6214089;23;20353;-59
2023/07/15 12:53:26;;;;;;;4.60;2.10;;;;;;;;;;6213543;23;20032;-59
2023/07/15 12:55:54;;;;;;;3.22;2.22;;;;;;;;;;6215361;23;20028;-59
2023/07/15 12:58:21;;;;;;;3.30;2.33;;;;;;;;;;6215937;23;20048;-59
2023/07/15 13:00:49;;;;;;;2.67;2.15;;;;;;;;;;6216069;23;20024;-59
2023/07/15 13:03:16;;;;;;;3.83;1.90;;;;;;;;;;6215621;23;20035;-59
2023/07/15 13:05:43;;;;;;;3.42;2.30;;;;;;;;;;6215763;23;20313;-59
2023/07/15 13:08:10;;;;;;;3.50;2.20;;;;;;;;;;6215518;23;20031;-57
2023/07/15 13:10:37;;;;;;;3.55;2.15;;;;;;;;;;6215866;23;20020;-58
2023/07/15 13:13:04;;;;;;;3.75;1.92;;;;;;;;;;6215286;23;20025;-59
2023/07/15 13:15:31;;;;;;;3.65;2.50;;;;;;;;;;6215388;23;20020;-59
2023/07/15 13:17:59;;;;;;;3.90;2.70;;;;;;;;;;6215385;23;20478;-59
2023/07/15 13:20:26;;;;;;;3.33;2.17;;;;;;;;;;6215732;23;20029;-59
2023/07/15 13:22:52;;;;;;;3.17;2.22;;;;;;;;;;6214944;23;20372;-58
2023/07/15 13:25:19;;;;;;;2.97;2.15;;;;;;;;;;6215545;23;20028;-59
2023/07/15 13:27:46;;;;;;;4.32;2.17;;;;;;;;;;6215567;23;20020;-59
2023/07/15 13:30:13;;;;;;;3.88;2.30;;;;;;;;;;6215367;23;20067;-59
2023/07/15 13:32:40;;;;;;;3.20;2.25;;;;;;;;;;6215409;23;20055;-58
2023/07/15 13:35:09;;;;;;;3.22;2.10;;;;;;;;;;6214975;23;20028;-58
2023/07/15 13:37:35;;;;;;;3.38;2.17;;;;;;;;;;6215534;23;20071;-58
2023/07/15 13:40:03;;;;;;;3.13;2.33;;;;;;;;;;6215409;23;20440;-58
2023/07/15 13:42:29;;;;;;;3.00;2.20;;;;;;;;;;6215333;23;20083;-59
2023/07/15 13:44:56;;;;;;;3.20;2.25;;;;;;;;;;6214750;23;20020;-58
2023/07/15 13:47:23;;;;;;;3.65;2.20;;;;;;;;;;6215325;23;20024;-59
2023/07/15 13:49:50;;;;;;;3.15;2.42;;;;;;;;;;6215232;23;20028;-59
2023/07/15 13:52:18;;;;;;;4.07;2.10;;;;;;;;;;6215133;23;20337;-59
2023/07/15 13:54:45;;;;;;;3.47;2.60;;;;;;;;;;6214851;23;20024;-59
2023/07/15 13:57:12;;;;;;;3.80;2.75;;;;;;;;;;6215145;23;20460;-59
2023/07/15 13:59:39;;;;;;;3.80;2.38;;;;;;;;;;6215192;23;20031;-59
2023/07/15 14:02:06;;;;;;;3.72;2.35;;;;;;;;;;6214970;23;20031;-59
2023/07/15 14:04:33;;;;;;;3.65;2.67;;;;;;;;;;6214673;23;20551;-59
2023/07/15 14:07:00;;;;;;;2.85;2.25;;;;;;;;;;6215427;23;20083;-59
2023/07/15 14:09:28;;;;;;;3.03;2.08;;;;;;;;;;6215398;23;20406;-58
2023/07/15 14:11:56;;;;;;;3.37;2.20;;;;;;;;;;6215615;23;20464;-59
2023/07/15 14:14:23;;;;;;;3.53;2.13;;;;;;;;;;6214317;23;20021;-58
2023/07/15 14:16:49;;;;;;;3.65;2.50;;;;;;;;;;6214826;23;20025;-59
2023/07/15 14:19:16;;;;;;;2.83;2.08;;;;;;;;;;6215228;23;20016;-59
2023/07/15 14:21:43;;;;;;;3.00;2.35;;;;;;;;;;6215217;23;20079;-59
2023/07/15 14:24:10;;;;;;;6.45;4.15;;;;;;;;;;6214407;23;20045;-59
2023/07/15 14:26:38;;;;;;;4.20;3.13;;;;;;;;;;6215082;23;20028;-59
2023/07/15 14:29:05;;;;;;;5.93;4.67;;;;;;;;;;6215174;23;20024;-59
2023/07/15 14:31:32;;;;;;;6.53;4.93;;;;;;;;;;6215138;23;20410;-60
2023/07/15 14:33:59;;;;;;;6.65;4.28;;;;;;;;;;6214980;23;20024;-59
2023/07/15 14:36:26;;;;;;;3.88;2.45;;;;;;;;;;6215030;23;20075;-60
2023/07/15 14:38:54;;;;;;;3.70;2.10;;;;;;;;;;6215061;23;20107;-60
2023/07/15 14:41:20;;;;;;;3.00;2.30;;;;;;;;;;6214916;23;20359;-58
2023/07/15 14:43:49;;;;;;;3.63;2.45;;;;;;;;;;6214496;23;20021;-58
2023/07/15 14:46:15;;;;;;;3.85;2.55;;;;;;;;;;6215097;23;20029;-60